Time;durP1;ratioP1;P1;durP2;ratioP2;P2;SDS_P1;SDS_P2;PMS_P1;PMS_P2;Temp;Humidity;BMP_temperature;BMP_pressure;BME280_temperature;BME280_humidity;BME280_pressure;Samples;Min_cycle;Max_cycle;Signal;HPM_P1;HPM_P2
2021/01/29 00:00:30;;;;;;;19.80;10.37;;;3.30;74.80;;;;;;4982554;28;86397;-75
2021/01/29 00:02:57;;;;;;;18.63;11.60;;;3.30;74.80;;;;;;4980760;28;91374;-75
2021/01/29 00:05:29;;;;;;;19.77;11.43;;;3.20;74.80;;;;;;4981804;28;87595;-75
2021/01/29 00:07:55;;;;;;;17.23;10.70;;;3.20;74.90;;;;;;4982081;28;87909;-75
2021/01/29 00:10:21;;;;;;;25.90;12.00;;;3.10;74.80;;;;;;4981696;28;87078;-75
2021/01/29 00:12:47;;;;;;;21.50;11.37;;;3.10;74.30;;;;;;4982254;28;88137;-75
2021/01/29 00:15:18;;;;;;;22.60;11.73;;;3.10;74.20;;;;;;4982695;28;88346;-75
2021/01/29 00:17:44;;;;;;;21.23;11.27;;;3.10;74.50;;;;;;4980830;28;86885;-75
2021/01/29 00:20:13;;;;;;;22.10;12.37;;;3.00;74.90;;;;;;4982929;28;87003;-75
2021/01/29 00:22:39;;;;;;;23.33;12.40;;;3.00;74.60;;;;;;4980806;28;90928;-75
2021/01/29 00:25:08;;;;;;;21.30;10.40;;;3.00;74.70;;;;;;4983099;28;88255;-75
2021/01/29 00:27:34;;;;;;;21.53;12.43;;;3.00;74.80;;;;;;4981452;28;87604;-75
2021/01/29 00:30:00;;;;;;;23.20;11.73;;;3.00;74.80;;;;;;4980486;28;87411;-75
2021/01/29 00:32:26;;;;;;;21.27;11.17;;;3.00;75.10;;;;;;4979868;28;92176;-75
2021/01/29 00:34:51;;;;;;;20.30;10.47;;;3.00;74.90;;;;;;4963204;28;92222;-75
2021/01/29 00:37:17;;;;;;;19.17;10.13;;;3.00;75.00;;;;;;4981098;28;87095;-75
2021/01/29 00:39:43;;;;;;;18.00;10.33;;;3.00;75.20;;;;;;4980491;28;87059;-75
2021/01/29 00:42:09;;;;;;;18.00;10.93;;;3.00;75.60;;;;;;4964482;28;91272;-75
2021/01/29 00:44:35;;;;;;;16.57;10.30;;;3.00;75.30;;;;;;4963953;28;90920;-75
2021/01/29 00:47:01;;;;;;;21.73;12.10;;;3.00;75.30;;;;;;4981571;28;86818;-75
2021/01/29 00:49:27;;;;;;;24.50;12.87;;;3.00;75.20;;;;;;4981537;28;86331;-75
2021/01/29 00:51:53;;;;;;;25.77;15.03;;;3.00;75.50;;;;;;4979932;28;91694;-75
2021/01/29 00:54:19;;;;;;;24.60;15.23;;;3.10;75.60;;;;;;4980623;28;91618;-75
2021/01/29 00:56:45;;;;;;;25.77;13.60;;;3.10;75.50;;;;;;4979440;28;87897;-75
2021/01/29 00:59:14;;;;;;;21.80;11.80;;;3.00;75.40;;;;;;4982071;28;87057;-75
2021/01/29 01:02:05;;;;;;;17.53;10.90;;;3.00;75.60;;;;;;4979982;28;92210;-75
2021/01/29 01:04:31;;;;;;;20.53;11.67;;;2.90;75.80;;;;;;4980501;28;90951;-75
2021/01/29 01:06:57;;;;;;;22.03;12.07;;;2.80;76.20;;;;;;4979827;28;87417;-75
2021/01/29 01:09:43;;;;;;;19.83;11.63;;;2.70;76.30;;;;;;4982218;28;87396;-75
2021/01/29 01:12:10;;;;;;;19.47;11.53;;;2.70;76.70;;;;;;4980435;28;91967;-75
2021/01/29 01:15:17;;;;;;;23.13;12.10;;;2.60;76.80;;;;;;4980811;28;89233;-75
2021/01/29 01:17:49;;;;;;;20.37;10.93;;;2.70;76.90;;;;;;4980552;28;86961;-75
2021/01/29 01:20:27;;;;;;;19.97;12.03;;;2.70;77.00;;;;;;4980640;28;88541;-76
2021/01/29 01:22:53;;;;;;;18.73;11.23;;;2.70;76.70;;;;;;4979047;28;92811;-75
2021/01/29 01:25:36;;;;;;;19.73;10.67;;;2.70;76.70;;;;;;4980192;28;92483;-75
2021/01/29 01:28:11;;;;;;;21.63;12.47;;;2.80;76.60;;;;;;4980299;28;86829;-75
2021/01/29 01:30:47;;;;;;;20.43;11.27;;;2.70;76.40;;;;;;4978959;28;87066;-75
2021/01/29 01:33:18;;;;;;;19.70;11.13;;;2.80;76.50;;;;;;4980077;28;91907;-75
2021/01/29 01:35:54;;;;;;;18.60;11.87;;;2.80;76.30;;;;;;4978567;28;91822;-75
2021/01/29 01:38:30;;;;;;;22.53;11.30;;;2.80;76.30;;;;;;4979872;28;87144;-75
2021/01/29 01:40:57;;;;;;;20.20;10.80;;;2.80;75.90;;;;;;4979614;28;88457;-75
2021/01/29 01:43:29;;;;;;;17.07;10.03;;;2.80;75.70;;;;;;4979868;28;92132;-75
2021/01/29 01:46:24;;;;;;;18.23;10.97;;;2.80;75.90;;;;;;4975035;28;87392;-75
2021/01/29 01:49:23;;;;;;;19.00;11.00;;;2.80;76.10;;;;;;4974406;28;87804;-76
2021/01/29 01:52:37;;;;;;;19.37;11.33;;;2.80;75.70;;;;;;4979948;28;86915;-76
2021/01/29 01:55:25;;;;;;;18.83;10.80;;;2.80;75.70;;;;;;4977448;28;87182;-75
2021/01/29 01:58:05;;;;;;;19.20;10.63;;;2.80;75.30;;;;;;4978948;28;91478;-75
2021/01/29 02:00:53;;;;;;;17.40;10.37;;;2.80;75.40;;;;;;4978967;28;86829;-75
2021/01/29 02:03:29;;;;;;;18.40;11.40;;;2.80;75.70;;;;;;4979822;28;87430;-75
2021/01/29 02:06:28;;;;;;;18.30;10.73;;;2.70;75.80;;;;;;4980536;28;87823;-75
2021/01/29 02:09:17;;;;;;;18.23;10.60;;;2.80;75.40;;;;;;4981015;28;87811;-75
2021/01/29 02:11:54;;;;;;;18.20;10.80;;;2.80;75.20;;;;;;4978880;28;86926;-75
2021/01/29 02:14:39;;;;;;;16.27;10.20;;;2.70;75.20;;;;;;4977347;28;86912;-75
2021/01/29 02:18:03;;;;;;;19.77;11.10;;;2.70;75.70;;;;;;4978837;28;89894;-75
2021/01/29 02:20:42;;;;;;;18.33;10.83;;;2.70;75.20;;;;;;4977836;28;89028;-75
2021/01/29 02:23:48;;;;;;;20.10;11.27;;;2.70;75.60;;;;;;4979516;28;86875;-75
2021/01/29 02:27:11;;;;;;;18.33;10.27;;;2.70;75.40;;;;;;4978851;28;87644;-76
2021/01/29 02:29:54;;;;;;;19.97;11.77;;;2.70;75.30;;;;;;4963115;28;88860;-75
2021/01/29 02:32:52;;;;;;;19.77;12.10;;;2.60;75.20;;;;;;4979059;28;91077;-75
2021/01/29 02:35:30;;;;;;;19.53;11.87;;;2.60;75.40;;;;;;4979678;28;87158;-76
2021/01/29 02:38:33;;;;;;;18.00;10.37;;;2.60;75.10;;;;;;4962718;28;87688;-75
2021/01/29 02:41:19;;;;;;;19.67;10.80;;;2.60;75.20;;;;;;4978468;28;91686;-75
2021/01/29 02:44:21;;;;;;;17.20;10.93;;;2.60;75.50;;;;;;4978915;28;88373;-75
2021/01/29 02:47:14;;;;;;;15.82;10.73;;;2.60;75.60;;;;;;4975789;28;88410;-75
2021/01/29 02:50:31;;;;;;;16.73;10.23;;;2.50;76.00;;;;;;4980202;28;86941;-76
2021/01/29 02:53:43;;;;;;;18.57;10.57;;;2.60;75.70;;;;;;4979538;28;87979;-75
2021/01/29 02:57:01;;;;;;;14.50;9.97;;;2.60;75.90;;;;;;4978125;28;87674;-75
2021/01/29 02:59:47;;;;;;;15.97;10.33;;;2.60;76.00;;;;;;4978454;28;87424;-75
2021/01/29 03:02:50;;;;;;;15.55;9.95;;;2.60;76.00;;;;;;4977777;28;87062;-75
2021/01/29 03:05:27;;;;;;;16.57;9.90;;;2.60;76.00;;;;;;5011968;28;92104;-75
2021/01/29 03:07:59;;;;;;;24.03;11.13;;;2.60;76.20;;;;;;4961997;28;90524;-75
2021/01/29 03:10:52;;;;;;;18.03;11.17;;;2.50;76.40;;;;;;4980041;28;87004;-75
2021/01/29 03:14:03;;;;;;;18.40;11.23;;;2.50;76.80;;;;;;4975866;28;87007;-75
2021/01/29 03:16:52;;;;;;;18.47;11.33;;;2.50;77.00;;;;;;4974719;28;88290;-75
2021/01/29 03:19:59;;;;;;;19.13;10.37;;;2.50;77.10;;;;;;4975646;28;87115;-75
2021/01/29 03:22:49;;;;;;;17.53;10.77;;;2.50;77.20;;;;;;4975973;28;87766;-75
2021/01/29 03:25:39;;;;;;;21.17;10.73;;;2.50;77.40;;;;;;4976514;28;87476;-75
2021/01/29 03:28:29;;;;;;;20.73;10.93;;;2.40;77.80;;;;;;4976375;28;87280;-75
2021/01/29 03:31:15;;;;;;;21.60;11.50;;;2.30;78.20;;;;;;4978966;28;87102;-75
2021/01/29 03:34:37;;;;;;;19.00;11.27;;;2.40;78.10;;;;;;4979817;28;86754;-75
2021/01/29 03:37:38;;;;;;;16.27;9.63;;;2.40;77.90;;;;;;4950870;28;86305;-75
2021/01/29 03:40:23;;;;;;;15.87;8.17;;;2.30;77.40;;;;;;4980961;28;87274;-75
2021/01/29 03:43:16;;;;;;;16.27;7.70;;;2.30;77.00;;;;;;4975985;28;86898;-75
2021/01/29 03:46:30;;;;;;;13.53;7.93;;;2.40;76.60;;;;;;4975680;28;88305;-75
2021/01/29 03:49:29;;;;;;;13.97;7.80;;;2.30;76.40;;;;;;4978769;28;87699;-75
2021/01/29 03:52:37;;;;;;;14.77;6.80;;;2.40;76.20;;;;;;4975607;28;87210;-76
2021/01/29 03:55:38;;;;;;;12.93;7.00;;;2.30;75.90;;;;;;4980530;28;87612;-75
2021/01/29 03:59:00;;;;;;;10.03;7.27;;;2.30;75.70;;;;;;4981060;28;87227;-75
2021/01/29 04:02:00;;;;;;;13.93;7.70;;;2.40;75.60;;;;;;4977762;28;86733;-75
2021/01/29 04:05:17;;;;;;;14.17;7.27;;;2.40;75.70;;;;;;4977716;28;88002;-75
2021/01/29 04:08:31;;;;;;;12.13;6.83;;;2.30;75.60;;;;;;4956778;28;87456;-75
2021/01/29 04:11:23;;;;;;;13.83;7.67;;;2.40;75.70;;;;;;4962055;28;86976;-75
2021/01/29 04:14:18;;;;;;;13.70;6.90;;;2.30;75.80;;;;;;4958159;28;88985;-75
2021/01/29 04:16:47;;;;;;;12.37;6.43;;;2.20;76.00;;;;;;4961492;28;92127;-75
2021/01/29 04:19:21;;;;;;;13.70;7.60;;;2.20;76.10;;;;;;4994485;28;92384;-75
2021/01/29 04:22:01;;;;;;;11.93;7.10;;;2.20;76.50;;;;;;4995541;28;86934;-75
2021/01/29 04:24:39;;;;;;;13.40;7.27;;;2.10;76.40;;;;;;4979077;28;86896;-75
2021/01/29 04:27:07;;;;;;;16.43;8.50;;;2.10;76.40;;;;;;4962006;28;87661;-75
2021/01/29 04:29:38;;;;;;;16.03;8.40;;;2.10;76.50;;;;;;4962240;28;91265;-75
2021/01/29 04:32:09;;;;;;;11.97;7.20;;;2.10;76.60;;;;;;4962560;28;86874;-75
2021/01/29 04:34:39;;;;;;;15.53;8.13;;;2.00;76.70;;;;;;4964030;28;86193;-75
2021/01/29 04:37:12;;;;;;;14.53;7.63;;;2.00;76.90;;;;;;4961201;28;91691;-75
2021/01/29 04:39:46;;;;;;;14.43;6.97;;;2.00;77.10;;;;;;4963573;28;88333;-75
2021/01/29 04:42:49;;;;;;;11.67;6.50;;;2.00;77.20;;;;;;4962540;28;88227;-75
2021/01/29 04:45:46;;;;;;;11.27;6.43;;;2.10;77.10;;;;;;4994175;28;88270;-75
2021/01/29 04:48:20;;;;;;;13.43;6.13;;;2.00;77.20;;;;;;4994069;28;91666;-75
2021/01/29 04:51:16;;;;;;;11.50;6.03;;;2.10;77.00;;;;;;4978158;28;90838;-75
2021/01/29 04:54:10;;;;;;;10.23;6.13;;;2.10;76.80;;;;;;4978594;28;86919;-75
2021/01/29 04:57:12;;;;;;;9.93;5.87;;;2.10;76.70;;;;;;4961759;28;87007;-75
2021/01/29 05:00:09;;;;;;;12.15;6.20;;;2.10;76.60;;;;;;4963413;28;88370;-75
2021/01/29 05:03:02;;;;;;;10.57;5.47;;;2.10;76.70;;;;;;4987678;28;86984;-75
2021/01/29 05:06:16;;;;;;;11.80;6.37;;;2.10;76.80;;;;;;4963520;28;86840;-75
2021/01/29 05:09:28;;;;;;;13.40;5.90;;;2.10;76.50;;;;;;4972847;28;87260;-75
2021/01/29 05:12:29;;;;;;;9.57;5.00;;;2.10;76.70;;;;;;4961880;28;88496;-75
2021/01/29 05:15:18;;;;;;;12.17;5.67;;;2.10;76.90;;;;;;4961488;28;91971;-75
2021/01/29 05:17:44;;;;;;;10.07;5.07;;;2.00;76.80;;;;;;4978140;28;86885;-75
2021/01/29 05:20:26;;;;;;;9.93;5.07;;;2.00;76.80;;;;;;4976567;28;87660;-75
2021/01/29 05:22:57;;;;;;;10.48;5.00;;;2.00;76.80;;;;;;4978108;28;87514;-75
2021/01/29 05:25:43;;;;;;;10.77;5.27;;;2.10;76.60;;;;;;4976839;28;91687;-76
2021/01/29 05:28:48;;;;;;;12.00;6.37;;;2.00;76.30;;;;;;4962885;28;87038;-75
2021/01/29 05:31:50;;;;;;;13.80;5.53;;;2.00;76.50;;;;;;4959925;28;86443;-75
2021/01/29 05:34:43;;;;;;;9.87;5.33;;;2.00;76.50;;;;;;4993283;28;90695;-75
2021/01/29 05:37:44;;;;;;;13.10;5.50;;;2.00;76.50;;;;;;4976574;28;91058;-75
2021/01/29 05:40:34;;;;;;;11.03;6.03;;;2.00;76.50;;;;;;4959296;28;87889;-75
2021/01/29 05:43:41;;;;;;;11.67;5.60;;;2.00;76.20;;;;;;4976916;28;87124;-75
2021/01/29 05:46:07;;;;;;;7.83;4.87;;;2.00;76.20;;;;;;4992333;28;91087;-75
2021/01/29 05:48:58;;;;;;;10.70;5.73;;;2.00;76.10;;;;;;4977259;28;91480;-75
2021/01/29 05:51:49;;;;;;;13.10;6.07;;;2.00;76.20;;;;;;4976723;28;86948;-75
2021/01/29 05:54:49;;;;;;;10.10;5.85;;;2.00;76.10;;;;;;4976666;28;87995;-75
2021/01/29 05:57:52;;;;;;;11.73;6.47;;;2.00;75.90;;;;;;4976282;28;91195;-75
2021/01/29 06:00:36;;;;;;;11.27;6.23;;;2.10;76.00;;;;;;4976576;28;90522;-75
2021/01/29 06:03:33;;;;;;;14.50;6.40;;;2.10;75.90;;;;;;4960996;28;86870;-75
2021/01/29 06:06:38;;;;;;;12.10;6.63;;;2.10;75.70;;;;;;4977199;28;87472;-76
2021/01/29 06:09:55;;;;;;;12.50;6.30;;;2.00;75.70;;;;;;4945512;28;92560;-75
2021/01/29 06:12:53;;;;;;;15.33;7.60;;;2.00;75.80;;;;;;4961410;28;92231;-75
2021/01/29 06:16:19;;;;;;;13.67;6.73;;;2.00;76.10;;;;;;4962007;28;87841;-75
2021/01/29 06:19:22;;;;;;;17.97;8.37;;;1.90;76.00;;;;;;4978174;28;87447;-75
2021/01/29 06:21:59;;;;;;;16.73;8.73;;;1.90;76.10;;;;;;4946248;28;92011;-75
2021/01/29 06:24:58;;;;;;;16.27;9.07;;;1.90;76.10;;;;;;4962325;28;88239;-75
2021/01/29 06:27:36;;;;;;;14.83;8.87;;;1.90;76.20;;;;;;4976294;28;87086;-75
2021/01/29 06:30:22;;;;;;;14.80;7.97;;;1.90;76.20;;;;;;4990815;28;88417;-76
2021/01/29 06:32:57;;;;;;;14.70;7.07;;;1.90;76.20;;;;;;5005659;28;88273;-76
2021/01/29 06:35:28;;;;;;;12.00;6.37;;;2.00;75.80;;;;;;5004134;28;88353;-75
2021/01/29 06:38:18;;;;;;;12.63;5.97;;;1.90;75.40;;;;;;4989130;28;88541;-75
2021/01/29 06:41:03;;;;;;;12.47;6.10;;;2.00;75.60;;;;;;4966129;28;87311;-75
2021/01/29 06:43:46;;;;;;;13.67;6.50;;;2.00;75.40;;;;;;4979265;28;88520;-75
2021/01/29 06:46:52;;;;;;;11.30;6.17;;;2.00;75.10;;;;;;4979278;28;90645;-75
2021/01/29 06:49:49;;;;;;;14.43;7.40;;;2.00;75.20;;;;;;4979273;28;87080;-76
2021/01/29 06:52:37;;;;;;;13.97;8.13;;;2.10;74.90;;;;;;4979534;28;86824;-76
2021/01/29 06:55:21;;;;;;;25.37;12.40;;;2.10;74.70;;;;;;4961770;28;91255;-76
2021/01/29 06:58:14;;;;;;;21.00;12.13;;;2.10;74.20;;;;;;4975925;28;91231;-75
2021/01/29 07:01:02;;;;;;;27.30;12.47;;;2.10;73.60;;;;;;4977251;28;87477;-75
2021/01/29 07:04:05;;;;;;;18.40;11.07;;;2.10;73.70;;;;;;4970281;28;88407;-75
2021/01/29 07:06:44;;;;;;;19.83;12.17;;;2.00;73.60;;;;;;4974526;28;92667;-75
2021/01/29 07:09:28;;;;;;;25.20;12.07;;;2.00;73.50;;;;;;4976317;28;91123;-75
2021/01/29 07:11:54;;;;;;;20.90;11.73;;;2.10;74.00;;;;;;4958405;28;87083;-75
2021/01/29 07:14:26;;;;;;;19.77;9.97;;;2.10;73.90;;;;;;4976351;28;87250;-75
2021/01/29 07:17:02;;;;;;;17.80;9.98;;;2.10;73.60;;;;;;4976733;28;91631;-75
2021/01/29 07:19:59;;;;;;;15.30;8.33;;;2.20;73.50;;;;;;4976838;28;91158;-75
2021/01/29 07:22:47;;;;;;;19.73;9.17;;;2.20;73.00;;;;;;4976546;28;88330;-75
2021/01/29 07:25:45;;;;;;;21.33;10.77;;;2.40;72.50;;;;;;4974140;28;87808;-75
2021/01/29 07:28:41;;;;;;;24.27;11.97;;;2.70;71.50;;;;;;4976615;28;91676;-75
2021/01/29 07:31:07;;;;;;;26.23;11.97;;;2.90;70.20;;;;;;4958339;28;91164;-75
2021/01/29 07:33:46;;;;;;;21.77;12.60;;;3.20;68.70;;;;;;4961120;28;87897;-75
2021/01/29 07:36:39;;;;;;;19.17;9.63;;;3.40;68.00;;;;;;4961963;28;87636;-75
2021/01/29 07:39:23;;;;;;;;;;;3.70;66.90;;;;;;4981588;28;88182;-75
2021/01/29 07:42:06;;;;;;;14.00;8.80;;;4.00;65.40;;;;;;4979473;28;90662;-75
2021/01/29 07:44:43;;;;;;;17.90;10.77;;;4.40;64.50;;;;;;4979132;28;86935;-75
2021/01/29 07:47:25;;;;;;;19.47;9.10;;;4.70;63.20;;;;;;4978428;28;87562;-76
2021/01/29 07:49:55;;;;;;;13.25;7.85;;;4.80;62.10;;;;;;4979261;28;91867;-75
2021/01/29 07:52:54;;;;;;;12.50;7.30;;;5.20;61.40;;;;;;4998168;28;91335;-75
2021/01/29 07:55:38;;;;;;;14.57;7.70;;;5.20;59.50;;;;;;4982084;28;87288;-75
2021/01/29 07:58:43;;;;;;;14.67;7.33;;;5.30;59.50;;;;;;4982452;28;86922;-76
2021/01/29 08:01:39;;;;;;;12.53;7.17;;;5.40;58.40;;;;;;4984458;28;91873;-76
2021/01/29 08:04:33;;;;;;;11.90;6.33;;;5.30;59.40;;;;;;4983294;28;91047;-75
2021/01/29 08:07:24;;;;;;;17.20;7.60;;;5.30;59.70;;;;;;4981318;28;87158;-76
2021/01/29 08:10:05;;;;;;;12.70;7.10;;;5.50;58.60;;;;;;5004899;28;87815;-76
2021/01/29 08:12:36;;;;;;;14.32;7.28;;;5.60;58.20;;;;;;5001991;28;88754;-75
2021/01/29 08:15:18;;;;;;;14.33;7.10;;;5.60;57.80;;;;;;5002177;28;87400;-75
2021/01/29 08:18:11;;;;;;;11.27;6.63;;;5.70;58.10;;;;;;5001074;28;87069;-75
2021/01/29 08:21:02;;;;;;;12.13;6.37;;;5.80;57.80;;;;;;5002731;28;86236;-75
2021/01/29 08:23:58;;;;;;;10.40;5.63;;;6.00;57.20;;;;;;4968646;28;90628;-75
2021/01/29 08:26:41;;;;;;;8.60;5.17;;;6.10;56.00;;;;;;4975814;28;91519;-76
2021/01/29 08:29:34;;;;;;;12.33;6.13;;;6.30;56.00;;;;;;4983350;28;88513;-76
2021/01/29 08:32:38;;;;;;;10.97;6.37;;;6.40;54.50;;;;;;4973577;28;88541;-76
2021/01/29 08:35:14;;;;;;;14.73;7.63;;;6.60;53.20;;;;;;5018074;28;91406;-75
2021/01/29 08:38:07;;;;;;;17.33;6.77;;;6.50;52.30;;;;;;4984341;28;88121;-75
2021/01/29 08:40:44;;;;;;;7.33;4.43;;;6.40;53.20;;;;;;4979875;28;86901;-75
2021/01/29 08:43:59;;;;;;;9.87;5.20;;;6.40;53.40;;;;;;4979340;28;88328;-76
2021/01/29 08:46:58;;;;;;;12.93;5.80;;;6.50;53.80;;;;;;4967740;28;91944;-76
2021/01/29 08:49:45;;;;;;;12.90;5.93;;;6.50;53.80;;;;;;5001603;28;87262;-75
2021/01/29 08:52:39;;;;;;;10.77;5.87;;;6.50;54.10;;;;;;5001021;28;87061;-76
2021/01/29 08:55:25;;;;;;;10.53;5.27;;;6.70;53.80;;;;;;4989338;28;87007;-76
2021/01/29 08:58:13;;;;;;;10.57;5.23;;;6.70;53.40;;;;;;4988754;28;88345;-76
2021/01/29 09:00:41;;;;;;;10.53;5.63;;;6.70;52.70;;;;;;5001418;28;89743;-76
2021/01/29 09:03:29;;;;;;;9.03;4.87;;;6.80;53.80;;;;;;4983661;28;87416;-76
2021/01/29 09:06:25;;;;;;;10.97;5.30;;;6.80;53.40;;;;;;4975806;28;88115;-76
2021/01/29 09:09:03;;;;;;;9.93;5.20;;;6.90;51.10;;;;;;4978538;28;90559;-75
2021/01/29 09:11:41;;;;;;;9.13;5.13;;;6.70;51.50;;;;;;4980140;28;90273;-75
2021/01/29 09:14:36;;;;;;;13.00;6.03;;;6.80;50.30;;;;;;4981337;28;86944;-76
2021/01/29 09:17:08;;;;;;;10.70;5.53;;;6.80;50.40;;;;;;4985715;28;86134;-76
2021/01/29 09:19:37;;;;;;;9.97;5.00;;;6.90;50.10;;;;;;4972013;28;91778;-75
2021/01/29 09:22:24;;;;;;;7.83;4.47;;;6.80;49.60;;;;;;4991005;28;91650;-76
2021/01/29 09:25:09;;;;;;;9.83;4.87;;;6.70;50.60;;;;;;4971444;28;88250;-75
2021/01/29 09:27:48;;;;;;;14.87;4.93;;;6.70;51.40;;;;;;5001039;28;87333;-76
2021/01/29 09:30:29;;;;;;;9.27;5.43;;;6.70;51.70;;;;;;5001430;28;88148;-75
2021/01/29 09:33:09;;;;;;;9.97;5.27;;;6.80;50.20;;;;;;4968351;28;91348;-76
2021/01/29 09:35:58;;;;;;;13.37;6.07;;;6.80;49.90;;;;;;4982992;28;87040;-76
2021/01/29 09:38:34;;;;;;;11.13;5.47;;;6.80;50.20;;;;;;4997123;28;87750;-76
2021/01/29 09:41:15;;;;;;;13.23;6.30;;;6.70;51.10;;;;;;4978236;28;91257;-76
2021/01/29 09:43:55;;;;;;;16.10;6.97;;;6.50;50.90;;;;;;4990720;28;88093;-76
2021/01/29 09:46:27;;;;;;;15.47;6.90;;;6.40;50.90;;;;;;4992034;28;86970;-76
2021/01/29 09:48:57;;;;;;;;;;;6.40;51.20;;;;;;4984566;28;87271;-76
2021/01/29 09:52:03;;;;;;;14.33;5.90;;;6.30;52.10;;;;;;4990620;28;92396;-76
2021/01/29 09:54:49;;;;;;;11.30;6.67;;;6.30;52.90;;;;;;4954645;28;91831;-76
2021/01/29 09:57:25;;;;;;;12.87;6.27;;;6.40;52.30;;;;;;4976114;28;87786;-77
2021/01/29 10:00:09;;;;;;;9.53;4.77;;;6.40;51.70;;;;;;4980371;28;87078;-77
2021/01/29 10:02:58;;;;;;;8.43;4.47;;;6.50;50.30;;;;;;4977958;28;88550;-76
2021/01/29 10:05:37;;;;;;;11.27;6.10;;;6.50;50.20;;;;;;4978021;28;89199;-77
2021/01/29 10:08:11;;;;;;;10.87;5.97;;;6.50;49.80;;;;;;4969657;28;87951;-76
2021/01/29 10:11:01;;;;;;;9.23;6.17;;;6.50;50.80;;;;;;4979882;28;86523;-76
2021/01/29 10:13:39;;;;;;;9.57;5.40;;;6.50;50.10;;;;;;4977764;28;91471;-76
2021/01/29 10:16:34;;;;;;;7.33;4.47;;;6.50;51.50;;;;;;4978609;28;87859;-76
2021/01/29 10:19:18;;;;;;;7.40;3.77;;;6.50;50.40;;;;;;4978276;28;88080;-76
2021/01/29 10:21:59;;;;;;;9.37;4.10;;;6.40;48.90;;;;;;4987550;28;87910;-76
2021/01/29 10:24:40;;;;;;;9.33;4.87;;;6.40;49.60;;;;;;4966369;28;90454;-76
2021/01/29 10:27:27;;;;;;;8.77;5.00;;;6.40;49.80;;;;;;4977101;28;91898;-76
2021/01/29 10:30:32;;;;;;;12.23;5.90;;;6.50;49.80;;;;;;4979258;28;87135;-76
2021/01/29 10:33:07;;;;;;;9.80;4.73;;;6.50;48.90;;;;;;4992644;28;87666;-76
2021/01/29 10:35:37;;;;;;;7.17;4.00;;;6.40;50.30;;;;;;4996730;28;89182;-77
2021/01/29 10:38:25;;;;;;;9.67;4.90;;;6.40;49.30;;;;;;4997335;28;87988;-76
2021/01/29 10:41:04;;;;;;;12.80;5.13;;;6.30;49.40;;;;;;4995297;28;87417;-76
2021/01/29 10:43:43;;;;;;;10.87;5.70;;;5.90;49.40;;;;;;4980057;28;87115;-76
2021/01/29 10:46:33;;;;;;;12.60;5.40;;;5.80;50.40;;;;;;4979357;28;92737;-76
2021/01/29 10:49:21;;;;;;;13.23;5.40;;;5.70;51.50;;;;;;4980664;28;90635;-76
2021/01/29 10:52:27;;;;;;;11.67;5.37;;;5.60;51.00;;;;;;4985623;28;87150;-76
2021/01/29 10:54:53;;;;;;;13.77;5.63;;;5.60;50.70;;;;;;4970422;28;87418;-76
2021/01/29 10:57:55;;;;;;;12.73;6.80;;;5.50;51.60;;;;;;4978844;28;88015;-76
2021/01/29 11:00:26;;;;;;;15.20;7.17;;;5.40;52.80;;;;;;4976976;28;88442;-76
2021/01/29 11:03:17;;;;;;;18.30;7.63;;;5.30;53.30;;;;;;4991127;28;87485;-76
2021/01/29 11:05:46;;;;;;;15.93;6.97;;;5.30;52.40;;;;;;4979616;28;86515;-76
2021/01/29 11:08:37;;;;;;;12.87;6.77;;;5.10;52.90;;;;;;4979769;28;87825;-76
2021/01/29 11:11:15;;;;;;;39.67;20.33;;;5.10;52.00;;;;;;4979157;28;90125;-77
2021/01/29 11:14:13;;;;;;;15.80;8.30;;;5.20;52.50;;;;;;4980440;28;88354;-77
2021/01/29 11:16:45;;;;;;;18.93;8.97;;;5.20;54.10;;;;;;4960143;28;87121;-74
2021/01/29 11:19:20;;;;;;;17.20;9.35;;;5.00;55.20;;;;;;4985239;28;87697;-76
2021/01/29 11:22:04;;;;;;;24.20;9.53;;;5.00;55.30;;;;;;4983988;28;87499;-76
2021/01/29 11:25:04;;;;;;;18.30;10.03;;;4.90;56.30;;;;;;4985124;28;86897;-75
2021/01/29 11:27:55;;;;;;;17.43;9.73;;;4.80;57.10;;;;;;5002785;28;87041;-76
2021/01/29 11:30:53;;;;;;;17.90;9.63;;;4.80;57.00;;;;;;5002633;28;91294;-74
2021/01/29 11:33:28;;;;;;;19.60;9.27;;;4.90;55.20;;;;;;5003590;28;88631;-75
2021/01/29 11:36:06;;;;;;;14.07;7.47;;;4.80;55.20;;;;;;5003198;28;87406;-76
2021/01/29 11:38:41;;;;;;;19.03;11.13;;;4.70;55.00;;;;;;5003845;28;87059;-75
2021/01/29 11:41:27;;;;;;;14.80;7.30;;;4.80;54.90;;;;;;5003158;28;89233;-76
2021/01/29 11:44:18;;;;;;;12.17;6.73;;;4.80;54.30;;;;;;5003931;28;88301;-76
2021/01/29 11:46:53;;;;;;;11.80;7.10;;;4.70;54.40;;;;;;5002932;28;87038;-76
2021/01/29 11:49:47;;;;;;;18.27;8.97;;;4.70;55.00;;;;;;5003462;28;87613;-75
2021/01/29 11:52:21;;;;;;;14.33;8.13;;;4.70;55.90;;;;;;5004137;28;88242;-76
2021/01/29 11:55:01;;;;;;;17.10;8.63;;;4.50;55.80;;;;;;5003744;28;90142;-76
2021/01/29 11:57:54;;;;;;;17.10;9.50;;;4.40;56.40;;;;;;4992468;28;87199;-75
2021/01/29 12:00:26;;;;;;;19.80;8.27;;;4.20;56.30;;;;;;4982317;28;86888;-76
2021/01/29 12:03:20;;;;;;;12.83;7.37;;;4.20;56.50;;;;;;4982696;28;90390;-76
2021/01/29 12:06:00;;;;;;;14.77;7.40;;;4.10;56.00;;;;;;4983323;28;88315;-75
2021/01/29 12:08:35;;;;;;;18.27;9.13;;;3.90;57.00;;;;;;4978677;28;88485;-75
2021/01/29 12:11:18;;;;;;;18.77;10.00;;;3.90;58.20;;;;;;4980700;28;87929;-76
2021/01/29 12:13:56;;;;;;;19.63;9.40;;;3.80;59.30;;;;;;4963240;28;91585;-75
2021/01/29 12:16:27;;;;;;;22.50;10.60;;;3.80;60.50;;;;;;4980942;28;91191;-75
2021/01/29 12:18:56;;;;;;;19.47;10.20;;;3.80;61.00;;;;;;4986976;28;87208;-75
2021/01/29 12:21:29;;;;;;;19.83;10.40;;;3.80;61.40;;;;;;4983139;28;87920;-74
2021/01/29 12:24:37;;;;;;;19.40;10.57;;;4.00;61.40;;;;;;5001785;28;89310;-76
2021/01/29 12:27:26;;;;;;;17.67;9.87;;;4.10;61.20;;;;;;5001850;28;87650;-76
2021/01/29 12:30:26;;;;;;;15.80;8.67;;;4.10;61.00;;;;;;4996646;28;87020;-77
2021/01/29 12:33:04;;;;;;;15.70;8.93;;;4.00;60.50;;;;;;4980497;28;87389;-77
2021/01/29 12:35:42;;;;;;;13.70;8.53;;;4.10;60.90;;;;;;4979848;28;89012;-76
2021/01/29 12:38:27;;;;;;;16.67;8.77;;;4.00;60.80;;;;;;4979444;28;92267;-76
2021/01/29 12:41:27;;;;;;;16.43;8.83;;;4.00;59.70;;;;;;5012392;28;87458;-76
2021/01/29 12:44:04;;;;;;;21.43;9.90;;;3.70;60.30;;;;;;4985572;28;87885;-75
2021/01/29 12:47:01;;;;;;;18.77;10.40;;;3.70;61.30;;;;;;4965362;28;91245;-75
2021/01/29 12:49:50;;;;;;;21.63;11.27;;;3.60;62.30;;;;;;4983152;28;88133;-75
2021/01/29 12:52:41;;;;;;;20.47;11.40;;;3.60;62.70;;;;;;5014358;28;87050;-75
2021/01/29 12:55:24;;;;;;;22.80;11.10;;;3.60;63.30;;;;;;4999618;28;86681;-76
2021/01/29 12:58:08;;;;;;;20.03;10.17;;;3.50;64.10;;;;;;4968491;28;91835;-76
2021/01/29 13:00:39;;;;;;;20.43;10.43;;;3.40;63.20;;;;;;4994198;28;88434;-76
2021/01/29 13:03:31;;;;;;;25.00;11.63;;;3.40;63.30;;;;;;4976831;28;88430;-76
2021/01/29 13:06:09;;;;;;;21.80;11.10;;;3.40;63.20;;;;;;4977501;28;87552;-76
2021/01/29 13:09:07;;;;;;;21.57;11.03;;;3.50;62.00;;;;;;4977181;28;88164;-76
2021/01/29 13:11:36;;;;;;;21.83;10.47;;;3.60;61.30;;;;;;4954002;28;91474;-76
2021/01/29 13:14:20;;;;;;;22.67;11.10;;;3.60;60.40;;;;;;4980754;28;87377;-76
2021/01/29 13:17:15;;;;;;;21.63;11.13;;;3.50;60.80;;;;;;4980707;28;87389;-76
2021/01/29 13:19:41;;;;;;;22.80;11.17;;;3.50;61.40;;;;;;4987722;28;87724;-76
2021/01/29 13:22:41;;;;;;;18.50;9.43;;;3.60;61.00;;;;;;4980232;28;87595;-76
2021/01/29 13:25:09;;;;;;;19.50;10.70;;;3.60;60.80;;;;;;4981274;28;87186;-76
2021/01/29 13:28:07;;;;;;;21.47;10.07;;;3.50;61.00;;;;;;4994005;28;87217;-76
2021/01/29 13:30:37;;;;;;;18.40;9.60;;;3.40;61.30;;;;;;4989936;28;92484;-76
2021/01/29 13:33:31;;;;;;;19.17;10.47;;;3.20;62.30;;;;;;5001711;28;88764;-76
2021/01/29 13:36:15;;;;;;;20.50;9.60;;;3.20;63.40;;;;;;5001199;28;86917;-77
2021/01/29 13:38:42;;;;;;;17.93;9.87;;;3.20;63.50;;;;;;4999832;28;87537;-77
2021/01/29 13:41:15;;;;;;;21.97;10.27;;;3.30;63.00;;;;;;4984436;28;91485;-76
2021/01/29 13:43:43;;;;;;;19.50;10.07;;;3.30;62.80;;;;;;4974995;28;88032;-77
2021/01/29 13:46:32;;;;;;;18.07;10.13;;;3.30;61.70;;;;;;4982172;28;87070;-72
2021/01/29 13:49:35;;;;;;;22.93;10.63;;;3.30;62.50;;;;;;4999670;28;87384;-73
2021/01/29 13:52:24;;;;;;;16.43;8.13;;;3.20;63.60;;;;;;4975135;28;87233;-75
2021/01/29 13:54:51;;;;;;;17.07;9.63;;;3.10;64.30;;;;;;4993554;28;88613;-72
2021/01/29 13:57:44;;;;;;;18.20;9.90;;;3.00;65.10;;;;;;4979512;28;87996;-75
2021/01/29 14:00:16;;;;;;;19.13;9.80;;;3.00;65.70;;;;;;4975383;28;88322;-75
2021/01/29 14:02:50;;;;;;;18.07;9.50;;;3.20;65.90;;;;;;4980987;28;88341;-75
2021/01/29 14:05:16;;;;;;;21.43;8.90;;;3.10;65.70;;;;;;4990635;28;87933;-75
2021/01/29 14:07:45;;;;;;;16.07;8.70;;;3.20;63.90;;;;;;4998986;28;87464;-75
2021/01/29 14:10:23;;;;;;;18.83;9.43;;;3.10;64.30;;;;;;4982765;28;87411;-75
2021/01/29 14:13:18;;;;;;;26.97;12.57;;;3.00;65.10;;;;;;4998249;28;91318;-75
2021/01/29 14:15:58;;;;;;;22.83;11.57;;;3.00;65.30;;;;;;4969644;28;87896;-75
2021/01/29 14:18:46;;;;;;;27.47;14.30;;;3.10;64.70;;;;;;4996482;28;87443;-75